createdAt,value
2022-09-11T00:00:53.173Z,23.20
2022-09-11T00:03:21.480Z,23.20
2022-09-11T00:05:49.065Z,23.20
2022-09-11T00:08:17.082Z,23.20
2022-09-11T00:10:44.979Z,23.10
2022-09-11T00:13:22.320Z,23.20
2022-09-11T00:15:50.290Z,23.20
2022-09-11T00:18:21.644Z,23.10
2022-09-11T00:20:56.206Z,23.20
2022-09-11T00:23:24.705Z,23.20
2022-09-11T00:25:52.505Z,23.20
2022-09-11T00:28:20.989Z,23.20
2022-09-11T00:30:56.742Z,23.10
2022-09-11T00:33:23.887Z,23.20
2022-09-11T00:36:12.734Z,23.10
2022-09-11T00:38:40.151Z,23.10
2022-09-11T00:41:08.804Z,23.10
2022-09-11T00:44:08.407Z,23.10
2022-09-11T00:46:35.538Z,23.10
2022-09-11T00:49:07.653Z,23.10
2022-09-11T00:51:36.414Z,23.10
2022-09-11T00:54:04.436Z,23.10
2022-09-11T00:56:32.443Z,23.10
2022-09-11T00:59:01.008Z,23.10
2022-09-11T01:01:28.177Z,23.10
2022-09-11T01:03:56.010Z,23.10
2022-09-11T01:06:24.241Z,23.10
2022-09-11T01:08:52.516Z,23.10
2022-09-11T01:11:40.424Z,23.10
2022-09-11T01:14:13.268Z,23.10
2022-09-11T01:16:42.832Z,23.10
2022-09-11T01:19:15.669Z,23.10
2022-09-11T01:22:00.695Z,23.10
2022-09-11T01:24:46.882Z,23.10
2022-09-11T01:27:32.847Z,23.10
2022-09-11T01:30:02.776Z,23.10
2022-09-11T01:32:41.343Z,23.10
2022-09-11T01:35:24.920Z,23.00
2022-09-11T01:38:04.669Z,23.00
2022-09-11T01:40:45.975Z,23.00
2022-09-11T01:43:16.182Z,23.00
2022-09-11T01:45:46.133Z,23.00
2022-09-11T01:48:15.910Z,23.10
2022-09-11T01:50:44.900Z,23.00
2022-09-11T01:53:14.538Z,23.10
2022-09-11T01:55:48.300Z,23.00
2022-09-11T01:58:20.375Z,23.00
2022-09-11T02:00:49.811Z,23.10
2022-09-11T02:03:19.168Z,23.00
2022-09-11T02:05:48.985Z,23.00
2022-09-11T02:08:29.959Z,23.00
2022-09-11T02:11:03.433Z,23.10
2022-09-11T02:13:42.424Z,23.00
2022-09-11T02:16:16.653Z,23.00
2022-09-11T02:18:57.637Z,23.00
2022-09-11T02:21:24.731Z,23.00
2022-09-11T02:23:51.936Z,23.00
2022-09-11T02:26:19.946Z,23.00
2022-09-11T02:28:47.266Z,23.00
2022-09-11T02:31:14.519Z,23.00
2022-09-11T02:33:43.514Z,23.00
2022-09-11T02:36:10.797Z,23.00
2022-09-11T02:38:55.575Z,23.00
2022-09-11T02:41:32.056Z,23.00
2022-09-11T02:43:59.180Z,23.00
2022-09-11T02:46:38.908Z,23.00
2022-09-11T02:49:20.621Z,23.00
2022-09-11T02:51:57.068Z,23.00
2022-09-11T02:54:29.040Z,23.00
2022-09-11T02:57:02.256Z,23.00
2022-09-11T02:59:38.129Z,23.00
2022-09-11T03:02:09.608Z,23.00
2022-09-11T03:04:37.657Z,23.00
2022-09-11T03:07:05.188Z,22.90
2022-09-11T03:09:34.775Z,23.00
2022-09-11T03:12:08.058Z,23.00
2022-09-11T03:14:38.125Z,23.00
2022-09-11T03:17:06.082Z,22.90
2022-09-11T03:19:34.946Z,23.00
2022-09-11T03:22:03.019Z,23.00
2022-09-11T03:24:30.227Z,23.00
2022-09-11T03:26:57.334Z,23.00
2022-09-11T03:29:24.881Z,23.00
2022-09-11T03:31:52.725Z,22.90
2022-09-11T03:34:20.094Z,22.90
2022-09-11T03:36:48.011Z,23.00
2022-09-11T03:39:15.226Z,22.90
2022-09-11T03:41:42.262Z,22.90
2022-09-11T03:44:09.724Z,22.90
2022-09-11T03:46:36.994Z,22.90
2022-09-11T03:49:04.148Z,22.90
2022-09-11T03:51:32.041Z,22.90
2022-09-11T03:54:02.306Z,22.90
2022-09-11T03:56:30.991Z,22.90
2022-09-11T03:59:00.036Z,22.90
2022-09-11T04:01:27.857Z,22.90
2022-09-11T04:03:55.984Z,22.90
2022-09-11T04:06:32.995Z,22.90
2022-09-11T04:09:00.959Z,22.90
2022-09-11T04:11:28.091Z,22.90
2022-09-11T04:13:56.235Z,22.90
2022-09-11T04:16:26.434Z,22.90
2022-09-11T04:18:56.062Z,22.90
2022-09-11T04:21:24.411Z,22.90
2022-09-11T04:23:55.871Z,22.90
2022-09-11T04:26:25.139Z,22.90
2022-09-11T04:28:58.511Z,22.90
2022-09-11T04:31:27.615Z,22.90
2022-09-11T04:33:57.758Z,22.90
2022-09-11T04:36:29.952Z,22.90
2022-09-11T04:38:58.232Z,22.90
2022-09-11T04:41:25.417Z,22.90
2022-09-11T04:44:04.902Z,22.90
2022-09-11T04:46:34.581Z,22.90
2022-09-11T04:49:03.335Z,22.90
2022-09-11T04:51:32.581Z,22.90
2022-09-11T04:54:00.703Z,22.90
2022-09-11T04:56:37.861Z,22.90
2022-09-11T04:59:09.512Z,22.90
2022-09-11T05:01:37.875Z,22.90
2022-09-11T05:04:05.586Z,22.90
2022-09-11T05:06:32.713Z,22.90
2022-09-11T05:09:04.502Z,22.90
2022-09-11T05:11:34.422Z,22.90
2022-09-11T05:14:01.661Z,22.90
2022-09-11T05:16:31.280Z,22.90
2022-09-11T05:18:59.314Z,22.80
2022-09-11T05:21:27.156Z,22.90
2022-09-11T05:23:55.476Z,22.90
2022-09-11T05:26:23.665Z,22.90
2022-09-11T05:28:54.950Z,22.90
2022-09-11T05:31:22.710Z,22.90
2022-09-11T05:33:49.832Z,22.90
2022-09-11T05:36:17.875Z,22.90
2022-09-11T05:38:45.327Z,22.80
2022-09-11T05:41:13.670Z,22.90
2022-09-11T05:43:41.244Z,23.00
2022-09-11T05:46:11.572Z,23.00
2022-09-11T05:48:39.288Z,23.00
2022-09-11T05:51:10.455Z,23.00
2022-09-11T05:53:38.009Z,23.00
2022-09-11T05:56:07.030Z,23.10
2022-09-11T05:58:34.282Z,23.10
2022-09-11T06:01:03.934Z,23.10
2022-09-11T06:03:34.656Z,23.10
2022-09-11T06:06:02.366Z,23.10
2022-09-11T06:08:30.916Z,23.10
2022-09-11T06:10:58.472Z,23.10
2022-09-11T06:13:26.448Z,23.20
2022-09-11T06:15:53.690Z,23.20
2022-09-11T06:18:20.959Z,23.30
2022-09-11T06:20:58.705Z,23.20
2022-09-11T06:23:26.999Z,23.30
2022-09-11T06:26:02.466Z,23.20
2022-09-11T06:28:30.544Z,23.20
2022-09-11T06:30:58.732Z,23.10
2022-09-11T06:33:26.780Z,23.10
2022-09-11T06:35:58.661Z,23.10
2022-09-11T06:38:26.786Z,23.10
2022-09-11T06:40:54.686Z,23.20
2022-09-11T06:43:22.120Z,23.20
2022-09-11T06:45:49.630Z,23.20
2022-09-11T06:48:17.474Z,23.20
2022-09-11T06:50:45.771Z,23.20
2022-09-11T06:53:14.153Z,23.10
2022-09-11T06:55:48.407Z,23.10
2022-09-11T06:58:17.007Z,23.10
2022-09-11T07:00:44.803Z,23.10
2022-09-11T07:03:12.718Z,23.10
2022-09-11T07:05:45.112Z,23.10
2022-09-11T07:08:13.233Z,23.10
2022-09-11T07:10:42.224Z,23.00
2022-09-11T07:13:09.483Z,23.00
2022-09-11T07:15:37.243Z,23.00
2022-09-11T07:18:05.424Z,23.00
2022-09-11T07:20:32.564Z,23.00
2022-09-11T07:22:59.582Z,23.00
2022-09-11T07:25:28.871Z,23.00
2022-09-11T07:27:55.934Z,23.00
2022-09-11T07:30:23.449Z,23.00
2022-09-11T07:32:54.079Z,23.10
2022-09-11T07:35:21.484Z,23.00
2022-09-11T07:37:51.030Z,23.10
2022-09-11T07:40:18.956Z,23.10
2022-09-11T07:42:46.284Z,23.10
2022-09-11T07:45:13.419Z,23.10
2022-09-11T07:47:41.120Z,23.10
2022-09-11T07:50:08.414Z,23.00
2022-09-11T07:52:37.032Z,23.10
2022-09-11T07:55:06.009Z,23.10
2022-09-11T07:57:35.169Z,23.10
2022-09-11T08:00:07.034Z,23.10
2022-09-11T08:02:48.171Z,23.10
2022-09-11T08:05:19.738Z,23.10
2022-09-11T08:07:47.067Z,23.10
2022-09-11T08:10:27.165Z,23.10
2022-09-11T08:12:59.207Z,23.10
2022-09-11T08:15:28.462Z,23.10
2022-09-11T08:17:55.890Z,23.10
2022-09-11T08:20:23.628Z,23.10
2022-09-11T08:22:51.061Z,23.10
2022-09-11T08:25:19.180Z,23.10
2022-09-11T08:27:46.844Z,23.10
2022-09-11T08:30:17.426Z,23.10
2022-09-11T08:32:44.422Z,23.10
2022-09-11T08:35:11.538Z,23.10
2022-09-11T08:37:40.103Z,23.10
2022-09-11T08:40:08.141Z,23.10
2022-09-11T08:42:36.626Z,23.10
2022-09-11T08:45:07.515Z,23.10
2022-09-11T08:47:38.848Z,23.10
2022-09-11T08:50:26.283Z,23.10
2022-09-11T08:52:56.879Z,23.20
2022-09-11T08:55:32.746Z,23.20
2022-09-11T08:58:26.679Z,23.20
2022-09-11T09:01:19.333Z,23.20
2022-09-11T09:04:03.982Z,23.10
2022-09-11T09:06:54.081Z,23.20
2022-09-11T09:09:46.902Z,23.20
2022-09-11T09:12:16.076Z,23.20
2022-09-11T09:15:01.868Z,23.20
2022-09-11T09:17:32.828Z,23.10
2022-09-11T09:20:03.814Z,23.10
2022-09-11T09:22:43.874Z,23.20
2022-09-11T09:25:15.338Z,23.20
2022-09-11T09:27:45.358Z,23.20
2022-09-11T09:30:17.068Z,23.10
2022-09-11T09:32:51.026Z,23.10
2022-09-11T09:35:23.807Z,23.10
2022-09-11T09:37:54.270Z,23.10
2022-09-11T09:40:24.422Z,23.10
2022-09-11T09:42:54.624Z,23.10
2022-09-11T09:45:39.168Z,23.10
2022-09-11T09:48:08.694Z,23.10
2022-09-11T09:50:39.231Z,23.10
2022-09-11T09:53:29.284Z,23.10
2022-09-11T09:55:58.547Z,23.10
2022-09-11T09:58:27.131Z,23.10
2022-09-11T10:00:54.229Z,23.10
2022-09-11T10:03:23.030Z,23.10
2022-09-11T10:05:50.920Z,23.10
2022-09-11T10:08:26.491Z,23.10
2022-09-11T10:10:58.222Z,23.10
2022-09-11T10:13:28.181Z,23.00
2022-09-11T10:16:19.266Z,23.10
2022-09-11T10:18:47.147Z,23.00
2022-09-11T10:21:33.400Z,23.00
2022-09-11T10:24:02.174Z,23.00
2022-09-11T10:26:32.063Z,23.00
2022-09-11T10:29:12.125Z,23.00
2022-09-11T10:31:40.955Z,23.00
2022-09-11T10:34:15.087Z,23.00
2022-09-11T10:36:51.623Z,23.00
2022-09-11T10:39:19.353Z,23.00
2022-09-11T10:41:52.135Z,23.00
2022-09-11T10:44:21.164Z,23.00
2022-09-11T10:47:03.775Z,23.00
2022-09-11T10:49:30.874Z,23.00
2022-09-11T10:51:59.318Z,23.00
2022-09-11T10:54:33.599Z,23.00
2022-09-11T10:57:14.659Z,23.00
2022-09-11T10:59:46.215Z,23.10
2022-09-11T11:02:19.307Z,23.10
2022-09-11T11:04:47.148Z,23.10
2022-09-11T11:07:17.695Z,23.00
2022-09-11T11:10:02.614Z,23.10
2022-09-11T11:12:40.136Z,23.00
2022-09-11T11:15:07.277Z,23.10
2022-09-11T11:17:50.088Z,23.10
2022-09-11T11:20:25.357Z,23.10
2022-09-11T11:23:02.816Z,23.10
2022-09-11T11:25:51.237Z,23.10
2022-09-11T11:28:41.477Z,23.10
2022-09-11T11:31:11.655Z,23.10
2022-09-11T11:33:39.628Z,23.10
2022-09-11T11:36:15.280Z,23.10
2022-09-11T11:38:48.343Z,23.10
2022-09-11T11:41:19.561Z,23.10
2022-09-11T11:43:48.427Z,23.10
2022-09-11T11:46:20.049Z,23.10
2022-09-11T11:48:47.257Z,23.10
2022-09-11T11:51:24.434Z,23.10
2022-09-11T11:53:59.814Z,23.10
2022-09-11T11:56:42.788Z,23.10
2022-09-11T11:59:17.022Z,23.10
2022-09-11T12:01:44.085Z,23.10
2022-09-11T12:04:30.336Z,23.10
2022-09-11T12:06:58.586Z,23.10
2022-09-11T12:09:31.565Z,23.00
2022-09-11T12:12:04.380Z,23.10
2022-09-11T12:14:33.764Z,23.10
2022-09-11T12:17:17.622Z,23.00
2022-09-11T12:20:03.803Z,23.00
2022-09-11T12:22:38.476Z,23.10
2022-09-11T12:25:25.471Z,23.10
2022-09-11T12:27:54.055Z,23.10
2022-09-11T12:30:23.102Z,23.10
2022-09-11T12:32:51.223Z,23.10
2022-09-11T12:35:41.628Z,23.10
2022-09-11T12:38:08.982Z,23.10
2022-09-11T12:40:39.298Z,23.10
2022-09-11T12:43:19.007Z,23.10
2022-09-11T12:45:49.304Z,23.10
2022-09-11T12:48:17.726Z,23.10
2022-09-11T12:50:54.116Z,23.20
2022-09-11T12:53:26.871Z,23.20
2022-09-11T12:56:01.113Z,23.20
2022-09-11T12:58:31.234Z,23.20
2022-09-11T13:01:06.772Z,23.20
2022-09-11T13:03:34.337Z,23.20
2022-09-11T13:06:03.368Z,23.20
2022-09-11T13:08:34.110Z,23.20
2022-09-11T13:11:19.773Z,23.20
2022-09-11T13:13:47.927Z,23.20
2022-09-11T13:16:19.188Z,23.20
2022-09-11T13:18:46.357Z,23.20
2022-09-11T13:21:14.845Z,23.20
2022-09-11T13:23:42.961Z,23.20
2022-09-11T13:26:15.841Z,23.20
2022-09-11T13:28:45.013Z,23.20
2022-09-11T13:31:16.958Z,23.20
2022-09-11T13:33:49.227Z,23.20
2022-09-11T13:36:16.680Z,23.20
2022-09-11T13:38:44.217Z,23.20
2022-09-11T13:41:16.722Z,23.10
2022-09-11T13:43:48.674Z,23.10
2022-09-11T13:46:15.871Z,23.10
2022-09-11T13:48:44.147Z,23.10
2022-09-11T13:51:12.787Z,23.10
2022-09-11T13:53:40.757Z,23.10
2022-09-11T13:56:21.299Z,23.10
2022-09-11T13:58:52.881Z,23.10
2022-09-11T14:01:20.624Z,23.20
2022-09-11T14:03:48.891Z,23.30
2022-09-11T14:06:16.961Z,23.40
2022-09-11T14:08:49.942Z,23.50
2022-09-11T14:11:22.597Z,23.50
2022-09-11T14:13:53.265Z,23.60
2022-09-11T14:16:26.095Z,23.70
2022-09-11T14:18:55.526Z,23.80
2022-09-11T14:21:24.062Z,23.80
2022-09-11T14:23:52.537Z,23.80
2022-09-11T14:26:21.610Z,23.90
2022-09-11T14:29:00.362Z,23.90
2022-09-11T14:31:30.197Z,23.90
2022-09-11T14:34:03.284Z,23.90
2022-09-11T14:36:30.388Z,23.90
2022-09-11T14:38:58.260Z,23.90
2022-09-11T14:41:25.549Z,23.90
2022-09-11T14:43:52.990Z,24.00
2022-09-11T14:46:20.071Z,24.00
2022-09-11T14:48:47.099Z,24.00
2022-09-11T14:51:14.156Z,24.10
2022-09-11T14:53:43.165Z,24.10
2022-09-11T14:56:10.472Z,24.10
2022-09-11T14:58:38.103Z,24.10
2022-09-11T15:01:05.294Z,24.00
2022-09-11T15:03:32.379Z,24.00
2022-09-11T15:05:59.495Z,23.90
2022-09-11T15:08:26.761Z,23.90
2022-09-11T15:10:53.899Z,23.80
2022-09-11T15:13:21.740Z,23.80
2022-09-11T15:15:50.938Z,23.70
2022-09-11T15:18:18.595Z,23.70
2022-09-11T15:20:45.667Z,23.70
2022-09-11T15:23:12.789Z,23.70
2022-09-11T15:25:40.898Z,23.60
2022-09-11T15:28:10.079Z,23.60
2022-09-11T15:30:37.811Z,23.60
2022-09-11T15:33:05.275Z,23.60
2022-09-11T15:35:33.123Z,23.50
2022-09-11T15:38:00.467Z,23.50
2022-09-11T15:40:27.470Z,23.50
2022-09-11T15:42:56.601Z,23.50
2022-09-11T15:45:23.856Z,23.50
2022-09-11T15:47:50.959Z,23.50
2022-09-11T15:50:24.264Z,23.50
2022-09-11T15:52:51.316Z,23.50
2022-09-11T15:55:18.342Z,23.50
2022-09-11T15:57:45.359Z,23.50
2022-09-11T16:00:14.462Z,23.50
2022-09-11T16:02:42.912Z,23.50
2022-09-11T16:05:10.254Z,23.50
2022-09-11T16:07:37.292Z,23.40
2022-09-11T16:10:04.492Z,23.40
2022-09-11T16:12:31.580Z,23.40
2022-09-11T16:14:59.070Z,23.50
2022-09-11T16:17:31.100Z,23.40
2022-09-11T16:19:58.725Z,23.40
2022-09-11T16:22:26.706Z,23.40
2022-09-11T16:24:54.154Z,23.40
2022-09-11T16:27:21.260Z,23.40
2022-09-11T16:32:39.148Z,23.40
2022-09-11T16:35:08.255Z,23.40
2022-09-11T16:37:35.445Z,23.40
2022-09-11T16:40:03.755Z,23.40
2022-09-11T16:42:31.323Z,23.40
2022-09-11T16:44:58.340Z,23.40
2022-09-11T16:47:25.390Z,23.40
2022-09-11T16:50:08.947Z,23.40
2022-09-11T16:52:39.003Z,23.40
2022-09-11T16:55:07.467Z,23.30
2022-09-11T16:57:34.546Z,23.40
2022-09-11T17:00:01.894Z,23.30
2022-09-11T17:02:28.983Z,23.40
2022-09-11T17:04:55.980Z,23.30
2022-09-11T17:07:23.832Z,23.40
2022-09-11T17:09:50.874Z,23.30
2022-09-11T17:12:18.198Z,23.30
2022-09-11T17:14:45.226Z,23.30
2022-09-11T17:17:12.343Z,23.30
2022-09-11T17:19:39.385Z,23.30
2022-09-11T17:22:07.215Z,23.30
2022-09-11T17:25:06.540Z,23.40
2022-09-11T17:27:36.148Z,23.30
2022-09-11T17:30:04.211Z,23.30
2022-09-11T17:32:31.292Z,23.30
2022-09-11T17:34:58.507Z,23.30
2022-09-11T17:37:26.438Z,23.30
2022-09-11T17:39:53.726Z,23.30
2022-09-11T17:42:20.839Z,23.30
2022-09-11T17:44:47.884Z,23.30
2022-09-11T17:47:14.931Z,23.30
2022-09-11T17:49:43.003Z,23.30
2022-09-11T17:52:10.073Z,23.30
2022-09-11T17:54:37.047Z,23.30
2022-09-11T17:57:04.157Z,23.20
2022-09-11T17:59:31.217Z,23.30
2022-09-11T18:01:59.898Z,23.30
2022-09-11T18:04:26.980Z,23.30
2022-09-11T18:06:54.339Z,23.30
2022-09-11T18:09:21.661Z,23.30
2022-09-11T18:11:50.836Z,23.30
2022-09-11T18:14:18.779Z,23.30
2022-09-11T18:16:47.280Z,23.30
2022-09-11T18:19:15.420Z,23.20
2022-09-11T18:21:44.682Z,23.30
2022-09-11T18:24:21.587Z,23.20
2022-09-11T18:26:49.977Z,23.20
2022-09-11T18:29:19.007Z,23.20
2022-09-11T18:31:49.887Z,23.30
2022-09-11T18:34:19.153Z,23.30
2022-09-11T18:36:46.772Z,23.30
2022-09-11T18:39:14.769Z,23.30
2022-09-11T18:41:42.003Z,23.30
2022-09-11T18:44:16.147Z,23.30
2022-09-11T18:46:45.925Z,23.30
2022-09-11T18:49:14.100Z,23.30
2022-09-11T18:51:42.238Z,23.30
2022-09-11T18:54:14.814Z,23.30
2022-09-11T18:56:42.713Z,23.30
2022-09-11T18:59:10.251Z,23.30
2022-09-11T19:01:37.473Z,23.30
2022-09-11T19:04:10.045Z,23.40
2022-09-11T19:06:40.561Z,23.30
2022-09-11T19:09:10.177Z,23.40
2022-09-11T19:11:37.467Z,23.30
2022-09-11T19:14:06.275Z,23.30
2022-09-11T19:16:33.841Z,23.30
2022-09-11T19:19:01.044Z,23.30
2022-09-11T19:21:28.184Z,23.30
2022-09-11T19:23:57.708Z,23.30
2022-09-11T19:26:26.029Z,23.30
2022-09-11T19:28:54.021Z,23.30
2022-09-11T19:31:21.666Z,23.30
2022-09-11T19:33:48.776Z,23.30
2022-09-11T19:36:17.669Z,23.30
2022-09-11T19:38:45.709Z,23.30
2022-09-11T19:41:14.276Z,23.30
2022-09-11T19:43:41.945Z,23.20
2022-09-11T19:46:10.438Z,23.20
2022-09-11T19:48:40.560Z,23.30
2022-09-11T19:51:10.613Z,23.30
2022-09-11T19:53:39.194Z,23.20
2022-09-11T19:56:06.441Z,23.30
2022-09-11T19:58:33.613Z,23.20
2022-09-11T20:01:10.316Z,23.20
2022-09-11T20:03:39.293Z,23.20
2022-09-11T20:06:06.501Z,23.20
2022-09-11T20:08:34.848Z,23.30
2022-09-11T20:11:03.023Z,23.20
2022-09-11T20:13:30.116Z,23.30
2022-09-11T20:16:01.938Z,23.30
2022-09-11T20:18:29.005Z,23.30
2022-09-11T20:21:00.526Z,23.30
2022-09-11T20:23:27.758Z,23.30
2022-09-11T20:25:55.204Z,23.30
2022-09-11T20:28:22.498Z,23.30
2022-09-11T20:30:49.856Z,23.40
2022-09-11T20:33:19.873Z,23.30
2022-09-11T20:35:46.925Z,23.30
2022-09-11T20:38:14.329Z,23.30
2022-09-11T20:40:43.834Z,23.30
2022-09-11T20:43:11.079Z,23.30
2022-09-11T20:45:38.157Z,23.30
2022-09-11T20:48:05.238Z,23.30
2022-09-11T20:50:32.689Z,23.30
2022-09-11T20:53:00.538Z,23.30
2022-09-11T20:55:27.718Z,23.30
2022-09-11T20:57:55.277Z,23.30
2022-09-11T21:00:22.340Z,23.30
2022-09-11T21:02:49.398Z,23.30
2022-09-11T21:05:16.405Z,23.30
2022-09-11T21:07:43.412Z,23.30
2022-09-11T21:10:10.488Z,23.30
2022-09-11T21:12:37.680Z,23.30
2022-09-11T21:15:06.593Z,23.30
2022-09-11T21:17:33.665Z,23.30
2022-09-11T21:20:00.732Z,23.30
2022-09-11T21:22:27.733Z,23.30
2022-09-11T21:24:54.998Z,23.30
2022-09-11T21:27:22.028Z,23.30
2022-09-11T21:29:49.143Z,23.30
2022-09-11T21:32:16.214Z,23.30
2022-09-11T21:34:43.287Z,23.30
2022-09-11T21:37:10.319Z,23.20
2022-09-11T21:39:38.028Z,23.30
2022-09-11T21:42:08.699Z,23.20
2022-09-11T21:44:38.347Z,23.30
2022-09-11T21:47:05.508Z,23.20
2022-09-11T21:49:32.592Z,23.30
2022-09-11T21:51:59.648Z,23.20
2022-09-11T21:54:31.229Z,23.20
2022-09-11T21:56:58.876Z,23.20
2022-09-11T21:59:26.045Z,23.20
2022-09-11T22:01:53.345Z,23.20
2022-09-11T22:04:20.675Z,23.20
2022-09-11T22:06:47.710Z,23.20
2022-09-11T22:09:20.195Z,23.20
2022-09-11T22:11:47.946Z,23.20
2022-09-11T22:14:19.068Z,23.20
2022-09-11T22:16:46.264Z,23.20
2022-09-11T22:19:13.234Z,23.20
2022-09-11T22:21:40.877Z,23.20
2022-09-11T22:24:08.010Z,23.20
2022-09-11T22:26:35.161Z,23.20
2022-09-11T22:29:02.211Z,23.10
2022-09-11T22:31:29.297Z,23.20
2022-09-11T22:33:57.446Z,23.20
2022-09-11T22:36:26.057Z,23.20
2022-09-11T22:38:53.564Z,23.20
2022-09-11T22:41:20.603Z,23.20
2022-09-11T22:43:48.769Z,23.20
2022-09-11T22:46:16.462Z,23.20
2022-09-11T22:48:43.826Z,23.20
2022-09-11T22:51:11.113Z,23.20
2022-09-11T22:53:41.353Z,23.20
2022-09-11T22:56:09.396Z,23.20
2022-09-11T22:58:38.279Z,23.20
2022-09-11T23:01:06.575Z,23.20
2022-09-11T23:03:33.584Z,23.10
2022-09-11T23:06:20.198Z,23.10
2022-09-11T23:08:47.664Z,23.20
2022-09-11T23:11:16.061Z,23.20
2022-09-11T23:13:43.657Z,23.10
2022-09-11T23:16:12.618Z,23.10
2022-09-11T23:18:39.688Z,23.10
2022-09-11T23:21:06.832Z,23.10
2022-09-11T23:23:35.653Z,23.10
2022-09-11T23:26:05.861Z,23.10
2022-09-11T23:28:36.540Z,23.10
2022-09-11T23:31:04.234Z,23.10
2022-09-11T23:33:31.248Z,23.10
2022-09-11T23:35:58.288Z,23.10
2022-09-11T23:38:25.309Z,23.10
2022-09-11T23:40:53.340Z,23.10
2022-09-11T23:43:20.326Z,23.10
2022-09-11T23:45:47.350Z,23.10
2022-09-11T23:48:14.419Z,23.10
2022-09-11T23:50:41.785Z,23.10
2022-09-11T23:53:08.834Z,23.10
2022-09-11T23:55:39.499Z,23.10
2022-09-11T23:58:09.071Z,23.00
